Terminal Aerodrome Forecast
Issued by NWS

Home | Current Version | Previous Version | Text Only | Print | Product List | Glossary On
Versions: 1 2 3 4 5 6 7 8 9 10 11 12
000
FTUS45 KRIW 212300
TAFWRL
TAF
KWRL 212327Z 2200/2224 15006KT P6SM SCT090 BKN200
     FM221000 18005KT P6SM VCSH BKN100
     FM221300 VRB05KT P6SM SCT100 SCT200
     FM222200 20010G18KT P6SM VCSH FEW080 BKN150=

USA.gov is the U.S. government's official web portal to all federal, state and local government web resources and services.